sensor_id;sensor_type;location;lat;lon;timestamp;P1;durP1;ratioP1;P2;durP2;ratioP2
31112;SDS011;17763;48.730;9.136;2024-01-10T00:01:23;27.55;;;14.18;;
31112;SDS011;17763;48.730;9.136;2024-01-10T00:03:54;27.30;;;13.95;;
31112;SDS011;17763;48.730;9.136;2024-01-10T00:06:19;22.15;;;12.80;;
31112;SDS011;17763;48.730;9.136;2024-01-10T00:08:45;23.08;;;12.65;;
31112;SDS011;17763;48.730;9.136;2024-01-10T00:11:11;27.13;;;13.70;;
31112;SDS011;17763;48.730;9.136;2024-01-10T00:13:36;23.08;;;13.77;;
31112;SDS011;17763;48.730;9.136;2024-01-10T00:16:02;25.30;;;13.52;;
31112;SDS011;17763;48.730;9.136;2024-01-10T00:18:28;23.38;;;13.82;;
31112;SDS011;17763;48.730;9.136;2024-01-10T00:20:54;24.13;;;13.55;;
31112;SDS011;17763;48.730;9.136;2024-01-10T00:23:20;26.55;;;13.98;;
31112;SDS011;17763;48.730;9.136;2024-01-10T00:25:46;25.30;;;13.75;;
31112;SDS011;17763;48.730;9.136;2024-01-10T00:28:12;25.17;;;14.48;;
31112;SDS011;17763;48.730;9.136;2024-01-10T00:30:38;25.38;;;12.57;;
31112;SDS011;17763;48.730;9.136;2024-01-10T00:33:04;26.08;;;14.07;;
31112;SDS011;17763;48.730;9.136;2024-01-10T00:35:32;31.73;;;15.95;;
31112;SDS011;17763;48.730;9.136;2024-01-10T00:37:58;28.00;;;13.85;;
31112;SDS011;17763;48.730;9.136;2024-01-10T00:40:23;25.42;;;14.23;;
31112;SDS011;17763;48.730;9.136;2024-01-10T00:42:49;27.95;;;14.20;;
31112;SDS011;17763;48.730;9.136;2024-01-10T00:45:15;27.98;;;15.20;;
31112;SDS011;17763;48.730;9.136;2024-01-10T00:47:41;27.15;;;14.10;;
31112;SDS011;17763;48.730;9.136;2024-01-10T00:50:07;25.50;;;13.75;;
31112;SDS011;17763;48.730;9.136;2024-01-10T00:52:33;23.20;;;13.90;;
31112;SDS011;17763;48.730;9.136;2024-01-10T00:54:59;24.70;;;13.98;;
31112;SDS011;17763;48.730;9.136;2024-01-10T00:57:25;23.10;;;13.38;;
31112;SDS011;17763;48.730;9.136;2024-01-10T00:59:51;28.25;;;14.88;;
31112;SDS011;17763;48.730;9.136;2024-01-10T01:02:18;28.70;;;14.30;;
31112;SDS011;17763;48.730;9.136;2024-01-10T01:04:44;29.35;;;15.55;;
31112;SDS011;17763;48.730;9.136;2024-01-10T01:07:10;28.65;;;14.63;;
31112;SDS011;17763;48.730;9.136;2024-01-10T01:09:35;26.02;;;14.25;;
31112;SDS011;17763;48.730;9.136;2024-01-10T01:12:01;27.70;;;14.55;;
31112;SDS011;17763;48.730;9.136;2024-01-10T01:14:27;30.02;;;15.40;;
31112;SDS011;17763;48.730;9.136;2024-01-10T01:16:53;26.77;;;14.45;;
31112;SDS011;17763;48.730;9.136;2024-01-10T01:19:18;37.45;;;18.42;;
31112;SDS011;17763;48.730;9.136;2024-01-10T01:21:44;27.88;;;14.55;;
31112;SDS011;17763;48.730;9.136;2024-01-10T01:24:09;29.08;;;16.35;;
31112;SDS011;17763;48.730;9.136;2024-01-10T01:26:36;31.15;;;16.08;;
31112;SDS011;17763;48.730;9.136;2024-01-10T01:29:01;29.33;;;15.20;;
31112;SDS011;17763;48.730;9.136;2024-01-10T01:31:27;33.15;;;16.15;;
31112;SDS011;17763;48.730;9.136;2024-01-10T01:33:52;33.10;;;17.58;;
31112;SDS011;17763;48.730;9.136;2024-01-10T01:36:18;29.55;;;16.48;;
31112;SDS011;17763;48.730;9.136;2024-01-10T01:38:44;27.17;;;15.82;;
31112;SDS011;17763;48.730;9.136;2024-01-10T01:41:10;29.30;;;14.50;;
31112;SDS011;17763;48.730;9.136;2024-01-10T01:43:35;29.15;;;14.25;;
31112;SDS011;17763;48.730;9.136;2024-01-10T01:46:01;23.88;;;14.27;;
31112;SDS011;17763;48.730;9.136;2024-01-10T01:48:28;28.67;;;13.93;;
31112;SDS011;17763;48.730;9.136;2024-01-10T01:50:57;24.65;;;14.13;;
31112;SDS011;17763;48.730;9.136;2024-01-10T01:53:24;23.05;;;14.20;;
31112;SDS011;17763;48.730;9.136;2024-01-10T01:55:51;25.02;;;13.23;;
31112;SDS011;17763;48.730;9.136;2024-01-10T01:58:18;25.63;;;14.85;;
31112;SDS011;17763;48.730;9.136;2024-01-10T02:00:44;30.67;;;14.68;;
31112;SDS011;17763;48.730;9.136;2024-01-10T02:03:11;29.73;;;14.07;;
31112;SDS011;17763;48.730;9.136;2024-01-10T02:05:37;25.75;;;13.90;;
31112;SDS011;17763;48.730;9.136;2024-01-10T02:08:03;27.83;;;14.82;;
31112;SDS011;17763;48.730;9.136;2024-01-10T02:10:28;26.08;;;16.00;;
31112;SDS011;17763;48.730;9.136;2024-01-10T02:12:54;31.83;;;16.10;;
31112;SDS011;17763;48.730;9.136;2024-01-10T02:15:20;31.35;;;16.23;;
31112;SDS011;17763;48.730;9.136;2024-01-10T02:17:46;27.55;;;14.80;;
31112;SDS011;17763;48.730;9.136;2024-01-10T02:20:12;34.90;;;18.55;;
31112;SDS011;17763;48.730;9.136;2024-01-10T02:22:39;27.42;;;13.98;;
31112;SDS011;17763;48.730;9.136;2024-01-10T02:25:06;25.65;;;14.15;;
31112;SDS011;17763;48.730;9.136;2024-01-10T02:27:33;28.48;;;14.85;;
31112;SDS011;17763;48.730;9.136;2024-01-10T02:30:01;28.15;;;14.95;;
31112;SDS011;17763;48.730;9.136;2024-01-10T02:32:28;23.63;;;14.23;;
31112;SDS011;17763;48.730;9.136;2024-01-10T02:34:54;28.10;;;14.35;;
31112;SDS011;17763;48.730;9.136;2024-01-10T02:37:19;23.67;;;13.52;;
31112;SDS011;17763;48.730;9.136;2024-01-10T02:39:45;28.13;;;15.55;;
31112;SDS011;17763;48.730;9.136;2024-01-10T02:42:11;26.15;;;13.88;;
31112;SDS011;17763;48.730;9.136;2024-01-10T02:44:37;30.10;;;14.70;;
31112;SDS011;17763;48.730;9.136;2024-01-10T02:47:05;23.85;;;13.80;;
31112;SDS011;17763;48.730;9.136;2024-01-10T02:49:30;29.05;;;15.07;;
31112;SDS011;17763;48.730;9.136;2024-01-10T02:51:56;25.98;;;15.02;;
31112;SDS011;17763;48.730;9.136;2024-01-10T02:54:22;27.23;;;14.75;;
31112;SDS011;17763;48.730;9.136;2024-01-10T02:56:47;30.05;;;15.30;;
31112;SDS011;17763;48.730;9.136;2024-01-10T02:59:13;30.50;;;14.93;;
31112;SDS011;17763;48.730;9.136;2024-01-10T03:01:38;33.08;;;15.48;;
31112;SDS011;17763;48.730;9.136;2024-01-10T03:04:04;30.65;;;15.93;;
31112;SDS011;17763;48.730;9.136;2024-01-10T03:06:29;29.25;;;15.40;;
31112;SDS011;17763;48.730;9.136;2024-01-10T03:08:55;28.20;;;16.30;;
31112;SDS011;17763;48.730;9.136;2024-01-10T03:11:21;28.27;;;15.82;;
31112;SDS011;17763;48.730;9.136;2024-01-10T03:13:47;26.38;;;15.95;;
31112;SDS011;17763;48.730;9.136;2024-01-10T03:16:17;30.80;;;16.42;;
31112;SDS011;17763;48.730;9.136;2024-01-10T03:18:43;26.27;;;14.88;;
31112;SDS011;17763;48.730;9.136;2024-01-10T03:21:09;30.92;;;16.80;;
31112;SDS011;17763;48.730;9.136;2024-01-10T03:23:34;28.60;;;15.35;;
31112;SDS011;17763;48.730;9.136;2024-01-10T03:26:03;30.58;;;17.50;;
31112;SDS011;17763;48.730;9.136;2024-01-10T03:28:28;30.00;;;16.90;;
31112;SDS011;17763;48.730;9.136;2024-01-10T03:30:54;31.48;;;16.90;;
31112;SDS011;17763;48.730;9.136;2024-01-10T03:33:19;28.35;;;15.40;;
31112;SDS011;17763;48.730;9.136;2024-01-10T03:35:45;29.00;;;15.52;;
31112;SDS011;17763;48.730;9.136;2024-01-10T03:38:11;30.05;;;15.60;;
31112;SDS011;17763;48.730;9.136;2024-01-10T03:40:36;31.98;;;16.23;;
31112;SDS011;17763;48.730;9.136;2024-01-10T03:43:02;28.60;;;16.10;;
31112;SDS011;17763;48.730;9.136;2024-01-10T03:45:28;27.98;;;15.57;;
31112;SDS011;17763;48.730;9.136;2024-01-10T03:47:54;36.58;;;16.75;;
31112;SDS011;17763;48.730;9.136;2024-01-10T03:50:22;31.50;;;17.20;;
31112;SDS011;17763;48.730;9.136;2024-01-10T03:52:48;28.85;;;15.73;;
31112;SDS011;17763;48.730;9.136;2024-01-10T03:55:14;31.67;;;16.20;;
31112;SDS011;17763;48.730;9.136;2024-01-10T03:57:40;28.90;;;15.77;;
31112;SDS011;17763;48.730;9.136;2024-01-10T04:00:07;33.70;;;16.85;;
31112;SDS011;17763;48.730;9.136;2024-01-10T04:02:33;31.38;;;17.92;;
31112;SDS011;17763;48.730;9.136;2024-01-10T04:05:01;29.85;;;16.17;;
31112;SDS011;17763;48.730;9.136;2024-01-10T04:07:27;31.08;;;16.15;;
31112;SDS011;17763;48.730;9.136;2024-01-10T04:09:53;34.33;;;17.05;;
31112;SDS011;17763;48.730;9.136;2024-01-10T04:12:18;28.60;;;15.93;;
31112;SDS011;17763;48.730;9.136;2024-01-10T04:14:44;31.70;;;18.20;;
31112;SDS011;17763;48.730;9.136;2024-01-10T04:17:10;36.03;;;18.48;;
31112;SDS011;17763;48.730;9.136;2024-01-10T04:19:35;33.08;;;17.50;;
31112;SDS011;17763;48.730;9.136;2024-01-10T04:22:01;30.73;;;16.55;;
31112;SDS011;17763;48.730;9.136;2024-01-10T04:24:27;29.83;;;16.02;;
31112;SDS011;17763;48.730;9.136;2024-01-10T04:26:52;28.40;;;16.45;;
31112;SDS011;17763;48.730;9.136;2024-01-10T04:29:18;28.88;;;15.35;;
31112;SDS011;17763;48.730;9.136;2024-01-10T04:31:43;31.45;;;16.77;;
31112;SDS011;17763;48.730;9.136;2024-01-10T04:34:09;31.70;;;17.08;;
31112;SDS011;17763;48.730;9.136;2024-01-10T04:36:35;30.17;;;16.50;;
31112;SDS011;17763;48.730;9.136;2024-01-10T04:39:00;30.63;;;17.02;;
31112;SDS011;17763;48.730;9.136;2024-01-10T04:41:26;30.42;;;17.60;;
31112;SDS011;17763;48.730;9.136;2024-01-10T04:43:51;33.15;;;17.58;;
31112;SDS011;17763;48.730;9.136;2024-01-10T04:46:17;34.13;;;19.65;;
31112;SDS011;17763;48.730;9.136;2024-01-10T04:48:43;32.60;;;16.27;;
31112;SDS011;17763;48.730;9.136;2024-01-10T04:51:08;30.85;;;17.33;;
31112;SDS011;17763;48.730;9.136;2024-01-10T04:53:34;34.30;;;17.45;;
31112;SDS011;17763;48.730;9.136;2024-01-10T04:56:02;33.03;;;17.52;;
31112;SDS011;17763;48.730;9.136;2024-01-10T04:58:28;35.92;;;17.77;;
31112;SDS011;17763;48.730;9.136;2024-01-10T05:00:54;32.15;;;17.98;;
31112;SDS011;17763;48.730;9.136;2024-01-10T05:03:20;31.95;;;17.25;;
31112;SDS011;17763;48.730;9.136;2024-01-10T05:05:46;35.58;;;17.48;;
31112;SDS011;17763;48.730;9.136;2024-01-10T05:08:11;30.60;;;17.60;;
31112;SDS011;17763;48.730;9.136;2024-01-10T05:10:37;31.52;;;17.33;;
31112;SDS011;17763;48.730;9.136;2024-01-10T05:13:02;36.67;;;18.45;;
31112;SDS011;17763;48.730;9.136;2024-01-10T05:15:28;30.95;;;16.92;;
31112;SDS011;17763;48.730;9.136;2024-01-10T05:17:54;31.75;;;17.13;;
31112;SDS011;17763;48.730;9.136;2024-01-10T05:20:19;31.27;;;16.98;;
31112;SDS011;17763;48.730;9.136;2024-01-10T05:22:45;34.28;;;18.70;;
31112;SDS011;17763;48.730;9.136;2024-01-10T05:25:11;35.85;;;18.38;;
31112;SDS011;17763;48.730;9.136;2024-01-10T05:27:37;34.70;;;19.27;;
31112;SDS011;17763;48.730;9.136;2024-01-10T05:30:03;36.40;;;18.73;;
31112;SDS011;17763;48.730;9.136;2024-01-10T05:32:29;32.03;;;18.35;;
31112;SDS011;17763;48.730;9.136;2024-01-10T05:34:55;39.15;;;19.55;;
31112;SDS011;17763;48.730;9.136;2024-01-10T05:37:20;33.53;;;18.13;;
31112;SDS011;17763;48.730;9.136;2024-01-10T05:39:47;34.13;;;18.10;;
31112;SDS011;17763;48.730;9.136;2024-01-10T05:42:12;36.60;;;19.35;;
31112;SDS011;17763;48.730;9.136;2024-01-10T05:44:39;38.13;;;18.77;;
31112;SDS011;17763;48.730;9.136;2024-01-10T05:47:05;33.22;;;19.42;;
31112;SDS011;17763;48.730;9.136;2024-01-10T05:49:31;35.70;;;17.80;;
31112;SDS011;17763;48.730;9.136;2024-01-10T05:51:57;30.77;;;18.00;;
31112;SDS011;17763;48.730;9.136;2024-01-10T05:54:23;36.83;;;18.88;;
31112;SDS011;17763;48.730;9.136;2024-01-10T05:56:49;33.45;;;20.00;;
31112;SDS011;17763;48.730;9.136;2024-01-10T05:59:14;30.20;;;18.38;;
31112;SDS011;17763;48.730;9.136;2024-01-10T06:01:41;37.95;;;19.52;;
31112;SDS011;17763;48.730;9.136;2024-01-10T06:04:07;38.40;;;20.13;;
31112;SDS011;17763;48.730;9.136;2024-01-10T06:06:33;35.20;;;20.40;;
31112;SDS011;17763;48.730;9.136;2024-01-10T06:08:59;41.72;;;20.20;;
31112;SDS011;17763;48.730;9.136;2024-01-10T06:11:25;38.15;;;19.45;;
31112;SDS011;17763;48.730;9.136;2024-01-10T06:13:51;38.10;;;20.40;;
31112;SDS011;17763;48.730;9.136;2024-01-10T06:16:16;39.65;;;19.75;;
31112;SDS011;17763;48.730;9.136;2024-01-10T06:18:42;39.05;;;20.15;;
31112;SDS011;17763;48.730;9.136;2024-01-10T06:21:08;38.90;;;19.17;;
31112;SDS011;17763;48.730;9.136;2024-01-10T06:23:34;37.83;;;20.42;;
31112;SDS011;17763;48.730;9.136;2024-01-10T06:25:59;41.30;;;20.23;;
31112;SDS011;17763;48.730;9.136;2024-01-10T06:28:26;40.38;;;19.58;;
31112;SDS011;17763;48.730;9.136;2024-01-10T06:30:51;38.80;;;20.45;;
31112;SDS011;17763;48.730;9.136;2024-01-10T06:33:17;40.50;;;19.25;;
31112;SDS011;17763;48.730;9.136;2024-01-10T06:35:45;36.08;;;18.73;;
31112;SDS011;17763;48.730;9.136;2024-01-10T06:38:11;37.50;;;19.42;;
31112;SDS011;17763;48.730;9.136;2024-01-10T06:40:37;34.88;;;19.52;;
31112;SDS011;17763;48.730;9.136;2024-01-10T06:43:03;37.80;;;20.83;;
31112;SDS011;17763;48.730;9.136;2024-01-10T06:45:29;36.03;;;19.13;;
31112;SDS011;17763;48.730;9.136;2024-01-10T06:47:54;37.17;;;18.92;;
31112;SDS011;17763;48.730;9.136;2024-01-10T06:50:20;34.95;;;19.25;;
31112;SDS011;17763;48.730;9.136;2024-01-10T06:52:46;35.50;;;19.40;;
31112;SDS011;17763;48.730;9.136;2024-01-10T06:55:13;36.15;;;19.55;;
31112;SDS011;17763;48.730;9.136;2024-01-10T06:57:38;35.05;;;19.40;;
31112;SDS011;17763;48.730;9.136;2024-01-10T07:00:07;35.88;;;19.05;;
31112;SDS011;17763;48.730;9.136;2024-01-10T07:02:36;37.72;;;20.58;;
31112;SDS011;17763;48.730;9.136;2024-01-10T07:05:02;36.85;;;19.73;;
31112;SDS011;17763;48.730;9.136;2024-01-10T07:07:31;38.95;;;18.70;;
31112;SDS011;17763;48.730;9.136;2024-01-10T07:10:00;36.70;;;18.75;;
31112;SDS011;17763;48.730;9.136;2024-01-10T07:12:26;36.83;;;19.48;;
31112;SDS011;17763;48.730;9.136;2024-01-10T07:14:51;37.35;;;20.38;;
31112;SDS011;17763;48.730;9.136;2024-01-10T07:17:17;35.55;;;18.55;;
31112;SDS011;17763;48.730;9.136;2024-01-10T07:19:43;34.75;;;18.23;;
31112;SDS011;17763;48.730;9.136;2024-01-10T07:22:08;38.80;;;18.95;;
31112;SDS011;17763;48.730;9.136;2024-01-10T07:24:35;36.72;;;18.55;;
31112;SDS011;17763;48.730;9.136;2024-01-10T07:27:01;38.40;;;20.00;;
31112;SDS011;17763;48.730;9.136;2024-01-10T07:29:26;35.63;;;18.15;;
31112;SDS011;17763;48.730;9.136;2024-01-10T07:31:52;34.95;;;19.30;;
31112;SDS011;17763;48.730;9.136;2024-01-10T07:34:18;38.00;;;19.50;;
31112;SDS011;17763;48.730;9.136;2024-01-10T07:36:43;39.88;;;19.55;;
31112;SDS011;17763;48.730;9.136;2024-01-10T07:39:09;36.97;;;19.48;;
31112;SDS011;17763;48.730;9.136;2024-01-10T07:41:35;38.38;;;19.33;;
31112;SDS011;17763;48.730;9.136;2024-01-10T07:44:00;42.95;;;22.85;;
31112;SDS011;17763;48.730;9.136;2024-01-10T07:46:26;38.65;;;21.13;;
31112;SDS011;17763;48.730;9.136;2024-01-10T07:48:52;39.88;;;21.73;;
31112;SDS011;17763;48.730;9.136;2024-01-10T07:51:18;38.97;;;20.20;;
31112;SDS011;17763;48.730;9.136;2024-01-10T07:53:44;41.67;;;21.83;;
31112;SDS011;17763;48.730;9.136;2024-01-10T07:56:11;37.60;;;18.83;;
31112;SDS011;17763;48.730;9.136;2024-01-10T07:58:39;37.17;;;19.88;;
31112;SDS011;17763;48.730;9.136;2024-01-10T08:01:05;37.05;;;21.13;;
31112;SDS011;17763;48.730;9.136;2024-01-10T08:03:30;34.83;;;19.90;;
31112;SDS011;17763;48.730;9.136;2024-01-10T08:05:57;35.15;;;19.40;;
31112;SDS011;17763;48.730;9.136;2024-01-10T08:08:22;47.80;;;20.67;;
31112;SDS011;17763;48.730;9.136;2024-01-10T08:10:48;42.33;;;20.35;;
31112;SDS011;17763;48.730;9.136;2024-01-10T08:13:13;39.78;;;20.38;;
31112;SDS011;17763;48.730;9.136;2024-01-10T08:15:39;36.78;;;20.80;;
31112;SDS011;17763;48.730;9.136;2024-01-10T08:18:06;36.42;;;19.48;;
31112;SDS011;17763;48.730;9.136;2024-01-10T08:20:32;37.60;;;19.58;;
31112;SDS011;17763;48.730;9.136;2024-01-10T08:22:58;38.28;;;19.83;;
31112;SDS011;17763;48.730;9.136;2024-01-10T08:25:23;37.80;;;21.60;;
31112;SDS011;17763;48.730;9.136;2024-01-10T08:27:49;34.92;;;20.67;;
31112;SDS011;17763;48.730;9.136;2024-01-10T08:30:17;35.80;;;20.30;;
31112;SDS011;17763;48.730;9.136;2024-01-10T08:32:42;35.85;;;20.88;;
31112;SDS011;17763;48.730;9.136;2024-01-10T08:35:08;38.20;;;20.08;;
31112;SDS011;17763;48.730;9.136;2024-01-10T08:37:34;38.25;;;20.75;;
31112;SDS011;17763;48.730;9.136;2024-01-10T08:40:00;37.15;;;20.02;;
31112;SDS011;17763;48.730;9.136;2024-01-10T08:44:57;38.38;;;20.85;;
31112;SDS011;17763;48.730;9.136;2024-01-10T08:47:23;40.90;;;20.83;;
31112;SDS011;17763;48.730;9.136;2024-01-10T08:49:49;41.28;;;20.58;;
31112;SDS011;17763;48.730;9.136;2024-01-10T08:52:16;41.20;;;21.75;;
31112;SDS011;17763;48.730;9.136;2024-01-10T08:54:41;42.25;;;21.65;;
31112;SDS011;17763;48.730;9.136;2024-01-10T08:57:07;38.83;;;21.02;;
31112;SDS011;17763;48.730;9.136;2024-01-10T08:59:33;38.60;;;20.27;;
31112;SDS011;17763;48.730;9.136;2024-01-10T09:01:59;45.03;;;22.35;;
31112;SDS011;17763;48.730;9.136;2024-01-10T09:04:25;38.95;;;21.33;;
31112;SDS011;17763;48.730;9.136;2024-01-10T09:06:51;41.22;;;21.92;;
31112;SDS011;17763;48.730;9.136;2024-01-10T09:09:16;40.30;;;20.98;;
31112;SDS011;17763;48.730;9.136;2024-01-10T09:11:46;39.08;;;21.73;;
31112;SDS011;17763;48.730;9.136;2024-01-10T09:14:13;42.03;;;23.02;;
31112;SDS011;17763;48.730;9.136;2024-01-10T09:16:38;39.83;;;20.33;;
31112;SDS011;17763;48.730;9.136;2024-01-10T09:19:04;44.42;;;23.10;;
31112;SDS011;17763;48.730;9.136;2024-01-10T09:21:30;37.88;;;21.73;;
31112;SDS011;17763;48.730;9.136;2024-01-10T09:23:55;43.38;;;24.65;;
31112;SDS011;17763;48.730;9.136;2024-01-10T09:26:21;43.53;;;23.65;;
31112;SDS011;17763;48.730;9.136;2024-01-10T09:28:47;43.72;;;23.42;;
31112;SDS011;17763;48.730;9.136;2024-01-10T09:31:13;39.50;;;22.85;;
31112;SDS011;17763;48.730;9.136;2024-01-10T09:33:39;44.20;;;23.58;;
31112;SDS011;17763;48.730;9.136;2024-01-10T09:36:05;39.42;;;22.38;;
31112;SDS011;17763;48.730;9.136;2024-01-10T09:38:37;41.92;;;24.30;;
31112;SDS011;17763;48.730;9.136;2024-01-10T09:41:03;41.05;;;23.75;;
31112;SDS011;17763;48.730;9.136;2024-01-10T09:43:30;46.70;;;24.98;;
31112;SDS011;17763;48.730;9.136;2024-01-10T09:45:57;47.70;;;24.90;;
31112;SDS011;17763;48.730;9.136;2024-01-10T09:48:26;43.70;;;25.50;;
31112;SDS011;17763;48.730;9.136;2024-01-10T09:50:52;44.72;;;26.17;;
31112;SDS011;17763;48.730;9.136;2024-01-10T09:53:24;42.90;;;24.45;;
31112;SDS011;17763;48.730;9.136;2024-01-10T09:55:56;46.55;;;24.83;;
31112;SDS011;17763;48.730;9.136;2024-01-10T09:58:28;42.25;;;24.80;;
31112;SDS011;17763;48.730;9.136;2024-01-10T10:00:54;53.17;;;26.50;;
31112;SDS011;17763;48.730;9.136;2024-01-10T10:03:20;50.33;;;26.15;;
31112;SDS011;17763;48.730;9.136;2024-01-10T10:05:45;45.58;;;25.02;;
31112;SDS011;17763;48.730;9.136;2024-01-10T10:08:12;44.03;;;26.33;;
31112;SDS011;17763;48.730;9.136;2024-01-10T10:10:40;45.63;;;25.73;;
31112;SDS011;17763;48.730;9.136;2024-01-10T10:13:10;52.15;;;26.73;;
31112;SDS011;17763;48.730;9.136;2024-01-10T10:15:57;53.97;;;27.92;;
31112;SDS011;17763;48.730;9.136;2024-01-10T10:18:24;39.65;;;24.33;;
31112;SDS011;17763;48.730;9.136;2024-01-10T10:21:03;46.20;;;25.27;;
31112;SDS011;17763;48.730;9.136;2024-01-10T10:23:33;45.85;;;26.40;;
31112;SDS011;17763;48.730;9.136;2024-01-10T10:25:58;50.85;;;27.63;;
31112;SDS011;17763;48.730;9.136;2024-01-10T10:28:34;42.50;;;25.02;;
31112;SDS011;17763;48.730;9.136;2024-01-10T10:30:59;44.97;;;25.20;;
31112;SDS011;17763;48.730;9.136;2024-01-10T10:33:25;48.03;;;25.98;;
31112;SDS011;17763;48.730;9.136;2024-01-10T10:35:53;46.13;;;26.05;;
31112;SDS011;17763;48.730;9.136;2024-01-10T10:38:21;46.38;;;24.92;;
31112;SDS011;17763;48.730;9.136;2024-01-10T10:40:48;47.08;;;25.50;;
31112;SDS011;17763;48.730;9.136;2024-01-10T10:43:14;41.45;;;24.25;;
31112;SDS011;17763;48.730;9.136;2024-01-10T10:45:48;42.42;;;24.00;;
31112;SDS011;17763;48.730;9.136;2024-01-10T10:48:18;47.35;;;25.63;;
31112;SDS011;17763;48.730;9.136;2024-01-10T10:53:15;40.30;;;23.35;;
31112;SDS011;17763;48.730;9.136;2024-01-10T10:55:43;46.97;;;25.60;;
31112;SDS011;17763;48.730;9.136;2024-01-10T10:58:11;49.45;;;26.83;;
31112;SDS011;17763;48.730;9.136;2024-01-10T11:00:38;51.90;;;26.58;;
31112;SDS011;17763;48.730;9.136;2024-01-10T11:03:05;50.72;;;27.02;;
31112;SDS011;17763;48.730;9.136;2024-01-10T11:05:35;51.22;;;27.02;;
31112;SDS011;17763;48.730;9.136;2024-01-10T11:08:05;43.53;;;26.08;;
31112;SDS011;17763;48.730;9.136;2024-01-10T11:10:33;48.22;;;25.77;;
31112;SDS011;17763;48.730;9.136;2024-01-10T11:24:41;55.67;;;29.58;;
31112;SDS011;17763;48.730;9.136;2024-01-10T11:27:10;58.45;;;29.52;;
31112;SDS011;17763;48.730;9.136;2024-01-10T11:29:37;49.80;;;27.50;;
31112;SDS011;17763;48.730;9.136;2024-01-10T11:32:05;50.88;;;28.23;;
31112;SDS011;17763;48.730;9.136;2024-01-10T11:37:18;48.83;;;27.70;;
31112;SDS011;17763;48.730;9.136;2024-01-10T11:39:44;47.90;;;27.70;;
31112;SDS011;17763;48.730;9.136;2024-01-10T11:42:10;53.03;;;27.70;;
31112;SDS011;17763;48.730;9.136;2024-01-10T11:44:48;49.67;;;27.33;;
31112;SDS011;17763;48.730;9.136;2024-01-10T11:47:15;45.72;;;27.00;;
31112;SDS011;17763;48.730;9.136;2024-01-10T11:49:44;52.80;;;28.73;;
31112;SDS011;17763;48.730;9.136;2024-01-10T11:52:20;49.35;;;27.58;;
31112;SDS011;17763;48.730;9.136;2024-01-10T11:54:59;51.40;;;28.20;;
31112;SDS011;17763;48.730;9.136;2024-01-10T11:57:26;51.25;;;29.83;;
31112;SDS011;17763;48.730;9.136;2024-01-10T11:59:57;47.78;;;28.52;;
31112;SDS011;17763;48.730;9.136;2024-01-10T12:04:54;51.22;;;26.65;;
31112;SDS011;17763;48.730;9.136;2024-01-10T12:07:20;50.50;;;27.92;;
31112;SDS011;17763;48.730;9.136;2024-01-10T12:09:46;57.42;;;31.45;;
31112;SDS011;17763;48.730;9.136;2024-01-10T12:12:13;60.10;;;32.53;;
31112;SDS011;17763;48.730;9.136;2024-01-10T12:14:39;49.00;;;28.55;;
31112;SDS011;17763;48.730;9.136;2024-01-10T12:17:06;45.97;;;26.75;;
31112;SDS011;17763;48.730;9.136;2024-01-10T12:19:33;50.97;;;29.60;;
31112;SDS011;17763;48.730;9.136;2024-01-10T12:22:00;45.50;;;27.30;;
31112;SDS011;17763;48.730;9.136;2024-01-10T12:24:29;43.80;;;26.52;;
31112;SDS011;17763;48.730;9.136;2024-01-10T12:26:55;53.13;;;30.73;;
31112;SDS011;17763;48.730;9.136;2024-01-10T12:29:21;49.75;;;28.08;;
31112;SDS011;17763;48.730;9.136;2024-01-10T12:31:47;50.03;;;28.80;;
31112;SDS011;17763;48.730;9.136;2024-01-10T12:34:13;53.70;;;29.42;;
31112;SDS011;17763;48.730;9.136;2024-01-10T12:36:40;53.78;;;28.55;;
31112;SDS011;17763;48.730;9.136;2024-01-10T12:39:06;53.03;;;28.83;;
31112;SDS011;17763;48.730;9.136;2024-01-10T12:41:32;64.03;;;34.17;;
31112;SDS011;17763;48.730;9.136;2024-01-10T12:43:59;56.08;;;29.23;;
31112;SDS011;17763;48.730;9.136;2024-01-10T12:46:29;56.90;;;29.98;;
31112;SDS011;17763;48.730;9.136;2024-01-10T12:51:26;56.08;;;30.50;;
31112;SDS011;17763;48.730;9.136;2024-01-10T12:53:54;54.72;;;29.85;;
31112;SDS011;17763;48.730;9.136;2024-01-10T12:56:21;47.00;;;27.05;;
31112;SDS011;17763;48.730;9.136;2024-01-10T12:58:46;49.85;;;28.40;;
31112;SDS011;17763;48.730;9.136;2024-01-10T13:01:12;53.20;;;28.75;;
31112;SDS011;17763;48.730;9.136;2024-01-10T13:03:38;49.08;;;28.48;;
31112;SDS011;17763;48.730;9.136;2024-01-10T13:06:05;55.22;;;30.15;;
31112;SDS011;17763;48.730;9.136;2024-01-10T13:08:30;48.40;;;28.45;;
31112;SDS011;17763;48.730;9.136;2024-01-10T13:10:59;52.38;;;29.65;;
31112;SDS011;17763;48.730;9.136;2024-01-10T13:13:25;53.53;;;29.23;;
31112;SDS011;17763;48.730;9.136;2024-01-10T13:15:50;48.83;;;27.08;;
31112;SDS011;17763;48.730;9.136;2024-01-10T13:18:17;51.97;;;29.02;;
31112;SDS011;17763;48.730;9.136;2024-01-10T13:20:43;46.88;;;29.15;;
31112;SDS011;17763;48.730;9.136;2024-01-10T13:23:12;47.33;;;28.67;;
31112;SDS011;17763;48.730;9.136;2024-01-10T13:25:38;53.42;;;30.17;;
31112;SDS011;17763;48.730;9.136;2024-01-10T13:28:04;52.80;;;29.00;;
31112;SDS011;17763;48.730;9.136;2024-01-10T13:30:30;53.70;;;30.42;;
31112;SDS011;17763;48.730;9.136;2024-01-10T13:32:55;51.50;;;28.90;;
31112;SDS011;17763;48.730;9.136;2024-01-10T13:35:23;50.95;;;29.42;;
31112;SDS011;17763;48.730;9.136;2024-01-10T13:37:49;48.67;;;27.35;;
31112;SDS011;17763;48.730;9.136;2024-01-10T13:40:15;53.80;;;29.67;;
31112;SDS011;17763;48.730;9.136;2024-01-10T13:42:41;48.90;;;28.65;;
31112;SDS011;17763;48.730;9.136;2024-01-10T13:45:08;51.92;;;29.25;;
31112;SDS011;17763;48.730;9.136;2024-01-10T13:47:38;53.55;;;28.83;;
31112;SDS011;17763;48.730;9.136;2024-01-10T13:50:07;50.88;;;28.73;;
31112;SDS011;17763;48.730;9.136;2024-01-10T13:52:33;52.25;;;29.17;;
31112;SDS011;17763;48.730;9.136;2024-01-10T13:54:59;52.13;;;30.05;;
31112;SDS011;17763;48.730;9.136;2024-01-10T13:57:25;50.65;;;28.58;;
31112;SDS011;17763;48.730;9.136;2024-01-10T13:59:51;54.80;;;28.05;;
31112;SDS011;17763;48.730;9.136;2024-01-10T14:02:20;49.10;;;28.08;;
31112;SDS011;17763;48.730;9.136;2024-01-10T14:04:49;46.47;;;27.33;;
31112;SDS011;17763;48.730;9.136;2024-01-10T14:07:15;43.88;;;27.00;;
31112;SDS011;17763;48.730;9.136;2024-01-10T14:09:41;48.03;;;24.60;;
31112;SDS011;17763;48.730;9.136;2024-01-10T14:12:07;45.33;;;25.45;;
31112;SDS011;17763;48.730;9.136;2024-01-10T14:14:32;52.17;;;29.45;;
31112;SDS011;17763;48.730;9.136;2024-01-10T14:16:58;49.03;;;26.13;;
31112;SDS011;17763;48.730;9.136;2024-01-10T14:19:24;40.30;;;24.25;;
31112;SDS011;17763;48.730;9.136;2024-01-10T14:21:49;39.08;;;22.83;;
31112;SDS011;17763;48.730;9.136;2024-01-10T14:24:15;39.95;;;23.85;;
31112;SDS011;17763;48.730;9.136;2024-01-10T14:26:43;46.10;;;24.67;;
31112;SDS011;17763;48.730;9.136;2024-01-10T14:29:09;37.88;;;22.35;;
31112;SDS011;17763;48.730;9.136;2024-01-10T14:31:35;42.70;;;24.60;;
31112;SDS011;17763;48.730;9.136;2024-01-10T14:34:01;41.65;;;23.50;;
31112;SDS011;17763;48.730;9.136;2024-01-10T14:36:27;37.30;;;23.30;;
31112;SDS011;17763;48.730;9.136;2024-01-10T14:38:53;38.00;;;23.20;;
31112;SDS011;17763;48.730;9.136;2024-01-10T14:41:20;39.92;;;22.23;;